sensor_id;sensor_type;location;lat;lon;timestamp;P1;durP1;ratioP1;P2;durP2;ratioP2
13588;SDS011;6865;52.552;13.434;2023-07-24T00:01:48;4.70;;;3.97;;
13588;SDS011;6865;52.552;13.434;2023-07-24T00:04:15;7.03;;;4.20;;
13588;SDS011;6865;52.552;13.434;2023-07-24T00:06:41;7.13;;;3.92;;
13588;SDS011;6865;52.552;13.434;2023-07-24T00:09:08;6.00;;;3.78;;
13588;SDS011;6865;52.552;13.434;2023-07-24T00:11:34;4.30;;;3.90;;
13588;SDS011;6865;52.552;13.434;2023-07-24T00:14:01;4.13;;;3.35;;
13588;SDS011;6865;52.552;13.434;2023-07-24T00:16:28;4.25;;;3.60;;
13588;SDS011;6865;52.552;13.434;2023-07-24T00:18:55;4.40;;;3.15;;
13588;SDS011;6865;52.552;13.434;2023-07-24T00:21:21;4.88;;;3.53;;
13588;SDS011;6865;52.552;13.434;2023-07-24T00:23:48;3.95;;;3.17;;
13588;SDS011;6865;52.552;13.434;2023-07-24T00:26:15;3.85;;;3.40;;
13588;SDS011;6865;52.552;13.434;2023-07-24T00:28:41;4.25;;;3.15;;
13588;SDS011;6865;52.552;13.434;2023-07-24T00:31:09;5.18;;;3.10;;
13588;SDS011;6865;52.552;13.434;2023-07-24T00:33:35;4.30;;;3.40;;
13588;SDS011;6865;52.552;13.434;2023-07-24T00:36:02;4.13;;;3.38;;
13588;SDS011;6865;52.552;13.434;2023-07-24T00:38:29;4.55;;;3.25;;
13588;SDS011;6865;52.552;13.434;2023-07-24T00:40:55;3.95;;;3.22;;
13588;SDS011;6865;52.552;13.434;2023-07-24T00:43:22;4.65;;;3.10;;
13588;SDS011;6865;52.552;13.434;2023-07-24T00:45:49;3.85;;;3.17;;
13588;SDS011;6865;52.552;13.434;2023-07-24T00:48:15;5.50;;;3.25;;
13588;SDS011;6865;52.552;13.434;2023-07-24T00:50:42;3.65;;;3.10;;
13588;SDS011;6865;52.552;13.434;2023-07-24T00:53:10;5.43;;;3.53;;
13588;SDS011;6865;52.552;13.434;2023-07-24T00:55:38;4.25;;;3.30;;
13588;SDS011;6865;52.552;13.434;2023-07-24T00:58:06;4.90;;;3.33;;
13588;SDS011;6865;52.552;13.434;2023-07-24T01:00:33;4.20;;;3.40;;
13588;SDS011;6865;52.552;13.434;2023-07-24T01:03:00;5.47;;;3.15;;
13588;SDS011;6865;52.552;13.434;2023-07-24T01:05:27;5.03;;;3.28;;
13588;SDS011;6865;52.552;13.434;2023-07-24T01:07:53;3.80;;;3.03;;
13588;SDS011;6865;52.552;13.434;2023-07-24T01:10:20;5.32;;;3.08;;
13588;SDS011;6865;52.552;13.434;2023-07-24T01:12:58;3.50;;;3.20;;
13588;SDS011;6865;52.552;13.434;2023-07-24T01:15:48;3.70;;;3.25;;
13588;SDS011;6865;52.552;13.434;2023-07-24T01:18:18;5.20;;;3.45;;
13588;SDS011;6865;52.552;13.434;2023-07-24T01:20:50;3.97;;;3.03;;
13588;SDS011;6865;52.552;13.434;2023-07-24T01:23:23;2.83;;;2.53;;
13588;SDS011;6865;52.552;13.434;2023-07-24T01:26:21;4.20;;;3.40;;
13588;SDS011;6865;52.552;13.434;2023-07-24T01:28:50;5.93;;;3.20;;
13588;SDS011;6865;52.552;13.434;2023-07-24T01:31:17;3.58;;;3.00;;
13588;SDS011;6865;52.552;13.434;2023-07-24T01:33:44;3.83;;;3.22;;
13588;SDS011;6865;52.552;13.434;2023-07-24T01:36:11;8.25;;;3.65;;
13588;SDS011;6865;52.552;13.434;2023-07-24T01:38:39;3.70;;;3.00;;
13588;SDS011;6865;52.552;13.434;2023-07-24T01:41:06;4.00;;;3.00;;
13588;SDS011;6865;52.552;13.434;2023-07-24T01:43:33;3.83;;;2.92;;
13588;SDS011;6865;52.552;13.434;2023-07-24T01:46:00;3.90;;;3.35;;
13588;SDS011;6865;52.552;13.434;2023-07-24T01:48:27;5.10;;;3.03;;
13588;SDS011;6865;52.552;13.434;2023-07-24T01:50:53;5.72;;;3.10;;
13588;SDS011;6865;52.552;13.434;2023-07-24T01:53:20;4.10;;;2.95;;
13588;SDS011;6865;52.552;13.434;2023-07-24T01:55:47;3.60;;;2.70;;
13588;SDS011;6865;52.552;13.434;2023-07-24T01:58:13;3.78;;;2.80;;
13588;SDS011;6865;52.552;13.434;2023-07-24T02:00:40;3.67;;;2.78;;
13588;SDS011;6865;52.552;13.434;2023-07-24T02:03:07;5.20;;;2.92;;
13588;SDS011;6865;52.552;13.434;2023-07-24T02:05:34;5.43;;;2.53;;
13588;SDS011;6865;52.552;13.434;2023-07-24T02:08:01;3.35;;;2.80;;
13588;SDS011;6865;52.552;13.434;2023-07-24T02:10:28;5.43;;;2.55;;
13588;SDS011;6865;52.552;13.434;2023-07-24T02:12:55;4.57;;;2.70;;
13588;SDS011;6865;52.552;13.434;2023-07-24T02:15:21;5.00;;;3.00;;
13588;SDS011;6865;52.552;13.434;2023-07-24T02:17:48;3.90;;;2.90;;
13588;SDS011;6865;52.552;13.434;2023-07-24T02:20:15;3.47;;;2.75;;
13588;SDS011;6865;52.552;13.434;2023-07-24T02:22:41;4.35;;;2.90;;
13588;SDS011;6865;52.552;13.434;2023-07-24T02:25:08;3.95;;;2.90;;
13588;SDS011;6865;52.552;13.434;2023-07-24T02:27:35;3.22;;;2.70;;
13588;SDS011;6865;52.552;13.434;2023-07-24T02:30:02;3.30;;;2.60;;
13588;SDS011;6865;52.552;13.434;2023-07-24T02:32:29;3.10;;;2.80;;
13588;SDS011;6865;52.552;13.434;2023-07-24T02:34:56;4.13;;;2.72;;
13588;SDS011;6865;52.552;13.434;2023-07-24T02:37:22;4.10;;;3.08;;
13588;SDS011;6865;52.552;13.434;2023-07-24T02:39:49;3.70;;;3.00;;
13588;SDS011;6865;52.552;13.434;2023-07-24T02:42:17;3.10;;;2.80;;
13588;SDS011;6865;52.552;13.434;2023-07-24T02:44:44;5.13;;;3.20;;
13588;SDS011;6865;52.552;13.434;2023-07-24T02:47:10;3.83;;;3.10;;
13588;SDS011;6865;52.552;13.434;2023-07-24T02:49:37;6.15;;;2.88;;
13588;SDS011;6865;52.552;13.434;2023-07-24T02:52:04;5.55;;;3.25;;
13588;SDS011;6865;52.552;13.434;2023-07-24T02:54:31;8.60;;;3.25;;
13588;SDS011;6865;52.552;13.434;2023-07-24T02:56:58;5.57;;;2.97;;
13588;SDS011;6865;52.552;13.434;2023-07-24T02:59:24;7.28;;;2.85;;
13588;SDS011;6865;52.552;13.434;2023-07-24T03:01:51;5.45;;;2.90;;
13588;SDS011;6865;52.552;13.434;2023-07-24T03:04:18;3.53;;;2.58;;
13588;SDS011;6865;52.552;13.434;2023-07-24T03:06:45;4.03;;;2.70;;
13588;SDS011;6865;52.552;13.434;2023-07-24T03:09:11;3.38;;;2.67;;
13588;SDS011;6865;52.552;13.434;2023-07-24T03:11:38;4.55;;;2.65;;
13588;SDS011;6865;52.552;13.434;2023-07-24T03:14:05;4.45;;;2.50;;
13588;SDS011;6865;52.552;13.434;2023-07-24T03:16:31;3.38;;;2.55;;
13588;SDS011;6865;52.552;13.434;2023-07-24T03:18:58;3.25;;;2.50;;
13588;SDS011;6865;52.552;13.434;2023-07-24T03:21:25;3.65;;;2.58;;
13588;SDS011;6865;52.552;13.434;2023-07-24T03:23:51;3.03;;;2.38;;
13588;SDS011;6865;52.552;13.434;2023-07-24T03:26:18;3.40;;;2.58;;
13588;SDS011;6865;52.552;13.434;2023-07-24T03:28:45;2.92;;;2.58;;
13588;SDS011;6865;52.552;13.434;2023-07-24T03:31:11;3.08;;;2.22;;
13588;SDS011;6865;52.552;13.434;2023-07-24T03:33:38;3.50;;;2.70;;
13588;SDS011;6865;52.552;13.434;2023-07-24T03:36:05;2.65;;;2.35;;
13588;SDS011;6865;52.552;13.434;2023-07-24T03:38:32;2.70;;;2.25;;
13588;SDS011;6865;52.552;13.434;2023-07-24T03:40:58;2.88;;;2.25;;
13588;SDS011;6865;52.552;13.434;2023-07-24T03:43:25;3.67;;;2.38;;
13588;SDS011;6865;52.552;13.434;2023-07-24T03:45:52;2.70;;;2.30;;
13588;SDS011;6865;52.552;13.434;2023-07-24T03:48:18;4.75;;;2.45;;
13588;SDS011;6865;52.552;13.434;2023-07-24T03:50:45;3.42;;;2.30;;
13588;SDS011;6865;52.552;13.434;2023-07-24T03:53:11;3.58;;;2.55;;
13588;SDS011;6865;52.552;13.434;2023-07-24T03:55:38;2.45;;;2.17;;
13588;SDS011;6865;52.552;13.434;2023-07-24T03:58:05;2.45;;;2.25;;
13588;SDS011;6865;52.552;13.434;2023-07-24T04:00:31;3.17;;;2.60;;
13588;SDS011;6865;52.552;13.434;2023-07-24T04:02:58;2.38;;;2.08;;
13588;SDS011;6865;52.552;13.434;2023-07-24T04:05:25;4.07;;;2.55;;
13588;SDS011;6865;52.552;13.434;2023-07-24T04:07:53;3.53;;;2.55;;
13588;SDS011;6865;52.552;13.434;2023-07-24T04:10:20;2.95;;;2.25;;
13588;SDS011;6865;52.552;13.434;2023-07-24T04:12:47;3.55;;;2.30;;
13588;SDS011;6865;52.552;13.434;2023-07-24T04:15:14;2.78;;;2.25;;
13588;SDS011;6865;52.552;13.434;2023-07-24T04:17:41;2.83;;;2.33;;
13588;SDS011;6865;52.552;13.434;2023-07-24T04:20:08;2.22;;;2.03;;
13588;SDS011;6865;52.552;13.434;2023-07-24T04:22:35;6.47;;;3.80;;
13588;SDS011;6865;52.552;13.434;2023-07-24T04:25:02;2.88;;;2.20;;
13588;SDS011;6865;52.552;13.434;2023-07-24T04:27:29;2.72;;;2.33;;
13588;SDS011;6865;52.552;13.434;2023-07-24T04:29:55;4.57;;;2.30;;
13588;SDS011;6865;52.552;13.434;2023-07-24T04:32:22;2.85;;;2.42;;
13588;SDS011;6865;52.552;13.434;2023-07-24T04:34:49;2.25;;;2.00;;
13588;SDS011;6865;52.552;13.434;2023-07-24T04:37:15;2.40;;;2.10;;
13588;SDS011;6865;52.552;13.434;2023-07-24T04:39:42;4.30;;;2.20;;
13588;SDS011;6865;52.552;13.434;2023-07-24T04:42:09;3.25;;;2.20;;
13588;SDS011;6865;52.552;13.434;2023-07-24T04:44:36;4.70;;;2.00;;
13588;SDS011;6865;52.552;13.434;2023-07-24T04:47:02;4.25;;;2.85;;
13588;SDS011;6865;52.552;13.434;2023-07-24T04:49:29;4.18;;;2.30;;
13588;SDS011;6865;52.552;13.434;2023-07-24T04:51:56;2.40;;;1.98;;
13588;SDS011;6865;52.552;13.434;2023-07-24T04:54:23;2.58;;;2.38;;
13588;SDS011;6865;52.552;13.434;2023-07-24T04:56:50;2.28;;;1.90;;
13588;SDS011;6865;52.552;13.434;2023-07-24T04:59:17;3.13;;;2.30;;
13588;SDS011;6865;52.552;13.434;2023-07-24T05:01:43;3.30;;;2.42;;
13588;SDS011;6865;52.552;13.434;2023-07-24T05:04:10;3.25;;;2.03;;
13588;SDS011;6865;52.552;13.434;2023-07-24T05:06:37;3.28;;;2.33;;
13588;SDS011;6865;52.552;13.434;2023-07-24T05:09:04;3.45;;;2.10;;
13588;SDS011;6865;52.552;13.434;2023-07-24T05:11:31;3.88;;;1.90;;
13588;SDS011;6865;52.552;13.434;2023-07-24T05:13:58;2.70;;;1.90;;
13588;SDS011;6865;52.552;13.434;2023-07-24T05:16:24;3.58;;;2.28;;
13588;SDS011;6865;52.552;13.434;2023-07-24T05:18:53;2.35;;;1.92;;
13588;SDS011;6865;52.552;13.434;2023-07-24T05:21:20;2.33;;;1.80;;
13588;SDS011;6865;52.552;13.434;2023-07-24T05:23:47;3.33;;;2.20;;
13588;SDS011;6865;52.552;13.434;2023-07-24T05:26:13;4.55;;;2.00;;
13588;SDS011;6865;52.552;13.434;2023-07-24T05:28:40;2.17;;;1.98;;
13588;SDS011;6865;52.552;13.434;2023-07-24T05:31:07;3.10;;;2.28;;
13588;SDS011;6865;52.552;13.434;2023-07-24T05:33:34;2.60;;;2.10;;
13588;SDS011;6865;52.552;13.434;2023-07-24T05:36:01;2.78;;;2.20;;
13588;SDS011;6865;52.552;13.434;2023-07-24T05:38:29;5.10;;;1.95;;
13588;SDS011;6865;52.552;13.434;2023-07-24T05:40:57;4.38;;;1.88;;
13588;SDS011;6865;52.552;13.434;2023-07-24T05:43:29;2.92;;;1.98;;
13588;SDS011;6865;52.552;13.434;2023-07-24T05:45:56;2.42;;;1.90;;
13588;SDS011;6865;52.552;13.434;2023-07-24T05:48:24;3.20;;;1.88;;
13588;SDS011;6865;52.552;13.434;2023-07-24T05:50:51;4.45;;;2.00;;
13588;SDS011;6865;52.552;13.434;2023-07-24T05:53:18;4.28;;;2.10;;
13588;SDS011;6865;52.552;13.434;2023-07-24T05:55:44;4.60;;;1.92;;
13588;SDS011;6865;52.552;13.434;2023-07-24T05:58:11;2.10;;;1.70;;
13588;SDS011;6865;52.552;13.434;2023-07-24T06:00:38;3.15;;;2.10;;
13588;SDS011;6865;52.552;13.434;2023-07-24T06:03:05;2.05;;;1.80;;
13588;SDS011;6865;52.552;13.434;2023-07-24T06:05:34;3.63;;;2.80;;
13588;SDS011;6865;52.552;13.434;2023-07-24T06:08:00;2.63;;;1.98;;
13588;SDS011;6865;52.552;13.434;2023-07-24T06:10:27;3.33;;;2.22;;
13588;SDS011;6865;52.552;13.434;2023-07-24T06:12:54;3.00;;;1.88;;
13588;SDS011;6865;52.552;13.434;2023-07-24T06:15:20;5.85;;;2.15;;
13588;SDS011;6865;52.552;13.434;2023-07-24T06:17:47;3.80;;;1.80;;
13588;SDS011;6865;52.552;13.434;2023-07-24T06:20:17;2.03;;;1.85;;
13588;SDS011;6865;52.552;13.434;2023-07-24T06:22:44;2.72;;;2.10;;
13588;SDS011;6865;52.552;13.434;2023-07-24T06:25:10;2.40;;;2.17;;
13588;SDS011;6865;52.552;13.434;2023-07-24T06:27:37;2.85;;;2.00;;
13588;SDS011;6865;52.552;13.434;2023-07-24T06:30:04;3.38;;;2.15;;
13588;SDS011;6865;52.552;13.434;2023-07-24T06:32:41;3.38;;;2.20;;
13588;SDS011;6865;52.552;13.434;2023-07-24T06:35:08;3.88;;;2.20;;
13588;SDS011;6865;52.552;13.434;2023-07-24T06:37:35;2.67;;;2.40;;
13588;SDS011;6865;52.552;13.434;2023-07-24T06:40:01;7.88;;;2.47;;
13588;SDS011;6865;52.552;13.434;2023-07-24T06:42:28;2.70;;;2.40;;
13588;SDS011;6865;52.552;13.434;2023-07-24T06:44:55;2.60;;;2.40;;
13588;SDS011;6865;52.552;13.434;2023-07-24T06:47:22;2.88;;;2.53;;
13588;SDS011;6865;52.552;13.434;2023-07-24T06:49:48;7.63;;;2.63;;
13588;SDS011;6865;52.552;13.434;2023-07-24T06:52:15;4.03;;;2.47;;
13588;SDS011;6865;52.552;13.434;2023-07-24T06:54:42;3.60;;;2.30;;
13588;SDS011;6865;52.552;13.434;2023-07-24T06:57:08;2.50;;;2.25;;
13588;SDS011;6865;52.552;13.434;2023-07-24T06:59:36;3.20;;;2.90;;
13588;SDS011;6865;52.552;13.434;2023-07-24T07:02:03;2.83;;;2.58;;
13588;SDS011;6865;52.552;13.434;2023-07-24T07:04:30;2.95;;;2.40;;
13588;SDS011;6865;52.552;13.434;2023-07-24T07:06:56;3.05;;;2.25;;
13588;SDS011;6865;52.552;13.434;2023-07-24T07:09:23;2.90;;;2.45;;
13588;SDS011;6865;52.552;13.434;2023-07-24T07:11:50;2.60;;;2.22;;
13588;SDS011;6865;52.552;13.434;2023-07-24T07:14:16;5.65;;;2.42;;
13588;SDS011;6865;52.552;13.434;2023-07-24T07:16:43;2.75;;;2.40;;
13588;SDS011;6865;52.552;13.434;2023-07-24T07:19:10;2.53;;;2.33;;
13588;SDS011;6865;52.552;13.434;2023-07-24T07:21:37;2.83;;;2.53;;
13588;SDS011;6865;52.552;13.434;2023-07-24T07:24:04;3.70;;;2.40;;
13588;SDS011;6865;52.552;13.434;2023-07-24T07:26:31;4.97;;;2.58;;
13588;SDS011;6865;52.552;13.434;2023-07-24T07:28:57;3.42;;;2.20;;
13588;SDS011;6865;52.552;13.434;2023-07-24T07:31:24;2.25;;;2.00;;
13588;SDS011;6865;52.552;13.434;2023-07-24T07:33:51;3.80;;;3.42;;
13588;SDS011;6865;52.552;13.434;2023-07-24T07:36:18;5.28;;;2.65;;
13588;SDS011;6865;52.552;13.434;2023-07-24T07:38:45;5.20;;;2.60;;
13588;SDS011;6865;52.552;13.434;2023-07-24T07:41:11;6.95;;;2.80;;
13588;SDS011;6865;52.552;13.434;2023-07-24T07:43:38;2.85;;;2.40;;
13588;SDS011;6865;52.552;13.434;2023-07-24T07:46:05;4.00;;;2.33;;
13588;SDS011;6865;52.552;13.434;2023-07-24T07:48:32;3.10;;;2.38;;
13588;SDS011;6865;52.552;13.434;2023-07-24T07:50:59;3.00;;;2.55;;
13588;SDS011;6865;52.552;13.434;2023-07-24T07:53:25;2.67;;;2.45;;
13588;SDS011;6865;52.552;13.434;2023-07-24T07:55:56;4.32;;;2.50;;
13588;SDS011;6865;52.552;13.434;2023-07-24T07:58:23;5.85;;;2.88;;
13588;SDS011;6865;52.552;13.434;2023-07-24T08:00:50;4.82;;;2.70;;
13588;SDS011;6865;52.552;13.434;2023-07-24T08:03:17;3.00;;;2.40;;
13588;SDS011;6865;52.552;13.434;2023-07-24T08:05:44;3.65;;;2.70;;
13588;SDS011;6865;52.552;13.434;2023-07-24T08:08:10;3.58;;;2.50;;
13588;SDS011;6865;52.552;13.434;2023-07-24T08:10:37;3.20;;;2.17;;
13588;SDS011;6865;52.552;13.434;2023-07-24T08:13:04;5.10;;;2.25;;
13588;SDS011;6865;52.552;13.434;2023-07-24T08:15:35;2.28;;;2.00;;
13588;SDS011;6865;52.552;13.434;2023-07-24T08:18:03;2.10;;;1.90;;
13588;SDS011;6865;52.552;13.434;2023-07-24T08:20:32;2.63;;;2.42;;
13588;SDS011;6865;52.552;13.434;2023-07-24T08:23:01;11.60;;;2.85;;
13588;SDS011;6865;52.552;13.434;2023-07-24T08:25:28;2.50;;;2.30;;
13588;SDS011;6865;52.552;13.434;2023-07-24T08:27:54;2.75;;;2.40;;
13588;SDS011;6865;52.552;13.434;2023-07-24T08:30:31;2.50;;;2.30;;
13588;SDS011;6865;52.552;13.434;2023-07-24T08:32:58;3.15;;;2.42;;
13588;SDS011;6865;52.552;13.434;2023-07-24T08:35:25;3.13;;;2.50;;
13588;SDS011;6865;52.552;13.434;2023-07-24T08:37:52;6.63;;;2.60;;
13588;SDS011;6865;52.552;13.434;2023-07-24T08:40:19;3.33;;;2.13;;
13588;SDS011;6865;52.552;13.434;2023-07-24T08:42:46;2.25;;;2.05;;
13588;SDS011;6865;52.552;13.434;2023-07-24T08:45:15;2.40;;;2.20;;
13588;SDS011;6865;52.552;13.434;2023-07-24T08:47:43;4.20;;;2.15;;
13588;SDS011;6865;52.552;13.434;2023-07-24T08:50:11;3.00;;;2.05;;
13588;SDS011;6865;52.552;13.434;2023-07-24T08:52:39;2.47;;;2.28;;
13588;SDS011;6865;52.552;13.434;2023-07-24T08:55:06;2.53;;;2.00;;
13588;SDS011;6865;52.552;13.434;2023-07-24T08:57:33;2.53;;;2.20;;
13588;SDS011;6865;52.552;13.434;2023-07-24T09:00:00;5.82;;;2.33;;
13588;SDS011;6865;52.552;13.434;2023-07-24T09:02:34;2.53;;;2.10;;
13588;SDS011;6865;52.552;13.434;2023-07-24T09:05:01;2.40;;;2.10;;
13588;SDS011;6865;52.552;13.434;2023-07-24T09:07:30;2.30;;;2.10;;
13588;SDS011;6865;52.552;13.434;2023-07-24T09:09:58;3.13;;;2.20;;
13588;SDS011;6865;52.552;13.434;2023-07-24T09:12:25;2.40;;;1.90;;
13588;SDS011;6865;52.552;13.434;2023-07-24T09:15:02;3.80;;;2.28;;
13588;SDS011;6865;52.552;13.434;2023-07-24T09:17:32;2.28;;;1.95;;
13588;SDS011;6865;52.552;13.434;2023-07-24T09:19:59;2.03;;;1.80;;
13588;SDS011;6865;52.552;13.434;2023-07-24T09:22:26;3.78;;;2.05;;
13588;SDS011;6865;52.552;13.434;2023-07-24T09:24:53;4.57;;;2.20;;
13588;SDS011;6865;52.552;13.434;2023-07-24T09:27:26;3.92;;;2.10;;
13588;SDS011;6865;52.552;13.434;2023-07-24T09:29:58;3.05;;;2.10;;
13588;SDS011;6865;52.552;13.434;2023-07-24T09:32:25;3.25;;;2.35;;
13588;SDS011;6865;52.552;13.434;2023-07-24T09:34:54;3.50;;;2.40;;
13588;SDS011;6865;52.552;13.434;2023-07-24T09:39:52;4.75;;;2.17;;
13588;SDS011;6865;52.552;13.434;2023-07-24T09:42:27;2.58;;;2.10;;
13588;SDS011;6865;52.552;13.434;2023-07-24T09:44:54;6.10;;;2.40;;
13588;SDS011;6865;52.552;13.434;2023-07-24T09:47:21;3.20;;;2.30;;
13588;SDS011;6865;52.552;13.434;2023-07-24T09:50:08;5.38;;;2.50;;
13588;SDS011;6865;52.552;13.434;2023-07-24T09:52:36;4.57;;;2.30;;
13588;SDS011;6865;52.552;13.434;2023-07-24T09:55:08;3.63;;;2.35;;
13588;SDS011;6865;52.552;13.434;2023-07-24T09:57:38;3.53;;;2.30;;
13588;SDS011;6865;52.552;13.434;2023-07-24T10:00:06;6.95;;;2.58;;
13588;SDS011;6865;52.552;13.434;2023-07-24T10:02:33;3.47;;;2.40;;
13588;SDS011;6865;52.552;13.434;2023-07-24T10:05:02;3.92;;;2.45;;
13588;SDS011;6865;52.552;13.434;2023-07-24T10:07:29;4.65;;;2.90;;
13588;SDS011;6865;52.552;13.434;2023-07-24T10:09:57;2.60;;;2.33;;
13588;SDS011;6865;52.552;13.434;2023-07-24T10:12:24;3.60;;;2.95;;
13588;SDS011;6865;52.552;13.434;2023-07-24T10:14:54;4.50;;;2.47;;
13588;SDS011;6865;52.552;13.434;2023-07-24T10:17:38;2.67;;;2.47;;
13588;SDS011;6865;52.552;13.434;2023-07-24T10:20:06;4.20;;;2.63;;
13588;SDS011;6865;52.552;13.434;2023-07-24T10:22:35;3.05;;;2.30;;
13588;SDS011;6865;52.552;13.434;2023-07-24T10:25:04;3.55;;;2.95;;
13588;SDS011;6865;52.552;13.434;2023-07-24T10:27:35;4.32;;;2.78;;
13588;SDS011;6865;52.552;13.434;2023-07-24T10:30:03;4.07;;;2.78;;
13588;SDS011;6865;52.552;13.434;2023-07-24T10:32:48;4.40;;;2.90;;
13588;SDS011;6865;52.552;13.434;2023-07-24T10:35:20;4.75;;;2.63;;
13588;SDS011;6865;52.552;13.434;2023-07-24T10:37:58;3.28;;;2.65;;
13588;SDS011;6865;52.552;13.434;2023-07-24T10:40:26;3.60;;;2.90;;
13588;SDS011;6865;52.552;13.434;2023-07-24T10:43:06;3.38;;;2.88;;
13588;SDS011;6865;52.552;13.434;2023-07-24T10:45:46;5.47;;;3.30;;
13588;SDS011;6865;52.552;13.434;2023-07-24T10:48:19;7.18;;;3.45;;
13588;SDS011;6865;52.552;13.434;2023-07-24T10:50:53;4.88;;;3.45;;
13588;SDS011;6865;52.552;13.434;2023-07-24T10:53:21;4.97;;;3.53;;
13588;SDS011;6865;52.552;13.434;2023-07-24T10:55:50;4.90;;;3.38;;
13588;SDS011;6865;52.552;13.434;2023-07-24T10:58:17;4.50;;;3.53;;
13588;SDS011;6865;52.552;13.434;2023-07-24T11:00:44;5.93;;;3.80;;
13588;SDS011;6865;52.552;13.434;2023-07-24T11:03:13;3.97;;;3.53;;
13588;SDS011;6865;52.552;13.434;2023-07-24T11:05:40;4.05;;;3.65;;
13588;SDS011;6865;52.552;13.434;2023-07-24T11:08:16;10.35;;;3.75;;
13588;SDS011;6865;52.552;13.434;2023-07-24T11:10:44;7.68;;;3.83;;
13588;SDS011;6865;52.552;13.434;2023-07-24T11:13:13;9.00;;;4.20;;
13588;SDS011;6865;52.552;13.434;2023-07-24T11:15:41;7.68;;;4.28;;
13588;SDS011;6865;52.552;13.434;2023-07-24T11:18:08;5.07;;;4.10;;
13588;SDS011;6865;52.552;13.434;2023-07-24T11:20:38;6.55;;;3.90;;
13588;SDS011;6865;52.552;13.434;2023-07-24T11:23:12;5.03;;;4.00;;
13588;SDS011;6865;52.552;13.434;2023-07-24T11:25:39;5.10;;;4.22;;
13588;SDS011;6865;52.552;13.434;2023-07-24T11:28:07;7.55;;;4.22;;
13588;SDS011;6865;52.552;13.434;2023-07-24T11:30:36;6.50;;;4.45;;
13588;SDS011;6865;52.552;13.434;2023-07-24T11:33:04;6.53;;;4.05;;
13588;SDS011;6865;52.552;13.434;2023-07-24T11:35:33;4.95;;;3.92;;
13588;SDS011;6865;52.552;13.434;2023-07-24T11:38:01;5.65;;;3.95;;
13588;SDS011;6865;52.552;13.434;2023-07-24T11:40:35;5.20;;;4.38;;
13588;SDS011;6865;52.552;13.434;2023-07-24T11:43:30;6.93;;;4.05;;
13588;SDS011;6865;52.552;13.434;2023-07-24T11:45:57;6.25;;;4.25;;
13588;SDS011;6865;52.552;13.434;2023-07-24T11:48:24;5.05;;;4.10;;
13588;SDS011;6865;52.552;13.434;2023-07-24T11:50:52;5.32;;;4.03;;
13588;SDS011;6865;52.552;13.434;2023-07-24T11:53:24;7.53;;;4.57;;
13588;SDS011;6865;52.552;13.434;2023-07-24T11:55:53;6.10;;;4.05;;
13588;SDS011;6865;52.552;13.434;2023-07-24T11:58:25;12.05;;;4.75;;
13588;SDS011;6865;52.552;13.434;2023-07-24T12:00:53;5.97;;;4.53;;
13588;SDS011;6865;52.552;13.434;2023-07-24T12:03:24;5.90;;;4.55;;
13588;SDS011;6865;52.552;13.434;2023-07-24T12:05:53;8.98;;;4.68;;
13588;SDS011;6865;52.552;13.434;2023-07-24T12:08:20;5.30;;;4.30;;
13588;SDS011;6865;52.552;13.434;2023-07-24T12:10:55;6.78;;;4.53;;
13588;SDS011;6865;52.552;13.434;2023-07-24T12:13:22;5.70;;;4.32;;
13588;SDS011;6865;52.552;13.434;2023-07-24T12:15:49;5.43;;;4.43;;
13588;SDS011;6865;52.552;13.434;2023-07-24T12:18:16;5.38;;;4.10;;
13588;SDS011;6865;52.552;13.434;2023-07-24T12:20:42;6.15;;;4.25;;
13588;SDS011;6865;52.552;13.434;2023-07-24T12:23:09;5.95;;;4.60;;
13588;SDS011;6865;52.552;13.434;2023-07-24T12:25:36;6.18;;;4.57;;
13588;SDS011;6865;52.552;13.434;2023-07-24T12:28:03;8.13;;;4.47;;
13588;SDS011;6865;52.552;13.434;2023-07-24T12:30:30;9.77;;;4.50;;
13588;SDS011;6865;52.552;13.434;2023-07-24T12:32:57;5.22;;;4.35;;
13588;SDS011;6865;52.552;13.434;2023-07-24T12:35:24;6.28;;;4.18;;
13588;SDS011;6865;52.552;13.434;2023-07-24T12:37:51;5.68;;;4.22;;
13588;SDS011;6865;52.552;13.434;2023-07-24T12:40:17;6.47;;;4.53;;
13588;SDS011;6865;52.552;13.434;2023-07-24T12:42:44;6.00;;;3.88;;
13588;SDS011;6865;52.552;13.434;2023-07-24T12:45:11;5.63;;;4.65;;
13588;SDS011;6865;52.552;13.434;2023-07-24T12:47:37;5.63;;;4.22;;
13588;SDS011;6865;52.552;13.434;2023-07-24T12:50:04;6.68;;;4.00;;
13588;SDS011;6865;52.552;13.434;2023-07-24T12:52:33;6.40;;;4.18;;
13588;SDS011;6865;52.552;13.434;2023-07-24T12:55:00;5.97;;;3.85;;
13588;SDS011;6865;52.552;13.434;2023-07-24T12:57:28;5.50;;;4.40;;
13588;SDS011;6865;52.552;13.434;2023-07-24T12:59:55;7.05;;;4.28;;
13588;SDS011;6865;52.552;13.434;2023-07-24T13:02:22;6.40;;;4.35;;
13588;SDS011;6865;52.552;13.434;2023-07-24T13:04:48;7.97;;;4.05;;
13588;SDS011;6865;52.552;13.434;2023-07-24T13:07:15;5.95;;;4.05;;
13588;SDS011;6865;52.552;13.434;2023-07-24T13:09:42;6.43;;;4.05;;
13588;SDS011;6865;52.552;13.434;2023-07-24T13:12:09;7.47;;;4.30;;
13588;SDS011;6865;52.552;13.434;2023-07-24T13:14:36;7.78;;;4.57;;
13588;SDS011;6865;52.552;13.434;2023-07-24T13:17:07;5.22;;;4.30;;
13588;SDS011;6865;52.552;13.434;2023-07-24T13:19:34;5.95;;;4.25;;
13588;SDS011;6865;52.552;13.434;2023-07-24T13:22:00;6.43;;;4.25;;
13588;SDS011;6865;52.552;13.434;2023-07-24T13:24:27;6.95;;;4.07;;
13588;SDS011;6865;52.552;13.434;2023-07-24T13:26:54;7.85;;;5.18;;
13588;SDS011;6865;52.552;13.434;2023-07-24T13:29:20;7.35;;;5.03;;
13588;SDS011;6865;52.552;13.434;2023-07-24T13:31:50;6.93;;;4.20;;
13588;SDS011;6865;52.552;13.434;2023-07-24T13:34:18;9.50;;;4.13;;
13588;SDS011;6865;52.552;13.434;2023-07-24T13:36:46;4.85;;;4.22;;
13588;SDS011;6865;52.552;13.434;2023-07-24T13:39:13;7.38;;;4.45;;
13588;SDS011;6865;52.552;13.434;2023-07-24T13:41:40;6.22;;;4.32;;
13588;SDS011;6865;52.552;13.434;2023-07-24T13:44:07;6.55;;;4.45;;
13588;SDS011;6865;52.552;13.434;2023-07-24T13:46:34;7.57;;;4.47;;
13588;SDS011;6865;52.552;13.434;2023-07-24T13:49:05;5.22;;;4.10;;
13588;SDS011;6865;52.552;13.434;2023-07-24T13:51:34;5.75;;;4.30;;
13588;SDS011;6865;52.552;13.434;2023-07-24T13:54:01;7.43;;;4.30;;
13588;SDS011;6865;52.552;13.434;2023-07-24T13:56:29;5.38;;;3.78;;
13588;SDS011;6865;52.552;13.434;2023-07-24T13:58:59;4.70;;;3.65;;
13588;SDS011;6865;52.552;13.434;2023-07-24T14:01:26;4.75;;;3.90;;
13588;SDS011;6865;52.552;13.434;2023-07-24T14:03:53;5.93;;;3.60;;
13588;SDS011;6865;52.552;13.434;2023-07-24T14:06:20;4.25;;;3.47;;
13588;SDS011;6865;52.552;13.434;2023-07-24T14:08:46;4.55;;;3.60;;
13588;SDS011;6865;52.552;13.434;2023-07-24T14:11:13;5.13;;;3.60;;
13588;SDS011;6865;52.552;13.434;2023-07-24T14:13:40;5.97;;;3.50;;
13588;SDS011;6865;52.552;13.434;2023-07-24T14:16:07;5.55;;;3.53;;
13588;SDS011;6865;52.552;13.434;2023-07-24T14:18:33;4.20;;;3.47;;
13588;SDS011;6865;52.552;13.434;2023-07-24T14:21:00;4.38;;;3.38;;
13588;SDS011;6865;52.552;13.434;2023-07-24T14:23:27;4.65;;;3.60;;
13588;SDS011;6865;52.552;13.434;2023-07-24T14:25:54;3.88;;;3.30;;
13588;SDS011;6865;52.552;13.434;2023-07-24T14:28:20;5.22;;;3.60;;
13588;SDS011;6865;52.552;13.434;2023-07-24T14:30:47;5.78;;;3.50;;
13588;SDS011;6865;52.552;13.434;2023-07-24T14:33:14;7.38;;;4.05;;
13588;SDS011;6865;52.552;13.434;2023-07-24T14:35:40;5.72;;;3.47;;
13588;SDS011;6865;52.552;13.434;2023-07-24T14:38:07;5.38;;;3.17;;
13588;SDS011;6865;52.552;13.434;2023-07-24T14:40:34;5.68;;;3.80;;
13588;SDS011;6865;52.552;13.434;2023-07-24T14:43:00;4.10;;;3.53;;
13588;SDS011;6865;52.552;13.434;2023-07-24T14:45:32;5.50;;;3.90;;
13588;SDS011;6865;52.552;13.434;2023-07-24T14:47:59;7.07;;;3.67;;
13588;SDS011;6865;52.552;13.434;2023-07-24T14:50:26;3.58;;;3.22;;
13588;SDS011;6865;52.552;13.434;2023-07-24T14:52:53;11.63;;;9.50;;
13588;SDS011;6865;52.552;13.434;2023-07-24T14:55:19;5.13;;;4.38;;